createdAt,value
2018-09-19T00:00:42.821Z,35.35
2018-09-19T00:01:42.827Z,34.87
2018-09-19T00:02:42.837Z,34.77
2018-09-19T00:03:42.839Z,34.77
2018-09-19T00:04:42.845Z,34.87
2018-09-19T00:05:42.851Z,34.87
2018-09-19T00:06:42.862Z,35.16
2018-09-19T00:07:42.865Z,34.97
2018-09-19T00:08:42.873Z,35.35
2018-09-19T00:09:42.880Z,34.87
2018-09-19T00:10:42.883Z,35.16
2018-09-19T00:11:42.890Z,34.97
2018-09-19T00:12:42.896Z,34.97
2018-09-19T00:13:42.902Z,35.16
2018-09-19T00:14:42.912Z,34.97
2018-09-19T00:15:42.918Z,35.16
2018-09-19T00:16:42.922Z,35.16
2018-09-19T00:17:42.929Z,34.77
2018-09-19T00:18:42.939Z,35.16
2018-09-19T00:19:42.975Z,34.97
2018-09-19T00:20:42.946Z,35.06
2018-09-19T00:21:42.955Z,34.97
2018-09-19T00:22:42.963Z,35.35
2018-09-19T00:23:42.968Z,34.97
2018-09-19T00:24:42.974Z,35.06
2018-09-19T00:25:42.981Z,34.77
2018-09-19T00:26:42.987Z,35.35
2018-09-19T00:27:42.995Z,35.16
2018-09-19T00:28:43.046Z,34.97
2018-09-19T00:29:43.006Z,34.97
2018-09-19T00:30:43.015Z,35.06
2018-09-19T00:31:43.023Z,35.06
2018-09-19T00:32:43.026Z,35.06
2018-09-19T00:33:43.033Z,34.97
2018-09-19T00:34:43.039Z,35.06
2018-09-19T00:35:43.047Z,34.97
2018-09-19T00:36:43.052Z,34.97
2018-09-19T00:37:43.065Z,34.97
2018-09-19T00:38:43.066Z,35.06
2018-09-19T00:39:43.078Z,35.16
2018-09-19T00:40:43.077Z,34.87
2018-09-19T00:41:43.085Z,35.06
2018-09-19T00:42:43.092Z,35.16
2018-09-19T00:43:43.097Z,35.16
2018-09-19T00:44:43.155Z,34.97
2018-09-19T00:45:43.109Z,35.16
2018-09-19T00:46:43.116Z,35.06
2018-09-19T00:47:43.126Z,35.16
2018-09-19T00:48:43.126Z,35.16
2018-09-19T00:49:43.137Z,34.97
2018-09-19T00:50:43.145Z,34.97
2018-09-19T00:51:43.155Z,35.06
2018-09-19T00:52:43.159Z,34.87
2018-09-19T00:53:43.162Z,35.16
2018-09-19T00:54:43.167Z,34.97
2018-09-19T00:55:43.177Z,34.97
2018-09-19T00:56:43.182Z,35.16
2018-09-19T00:57:43.186Z,34.77
2018-09-19T00:58:43.193Z,34.87
2018-09-19T00:59:43.205Z,35.25
2018-09-19T01:00:43.208Z,35.35
2018-09-19T01:01:43.214Z,34.97
2018-09-19T01:02:43.220Z,34.77
2018-09-19T01:03:43.237Z,35.16
2018-09-19T01:04:43.234Z,35.25
2018-09-19T01:05:43.239Z,35.16
2018-09-19T01:06:43.247Z,35.16
2018-09-19T01:07:43.251Z,35.25
2018-09-19T01:08:43.257Z,35.16
2018-09-19T01:09:43.266Z,35.55
2018-09-19T01:10:43.277Z,35.25
2018-09-19T01:11:43.292Z,35.06
2018-09-19T01:12:43.283Z,35.25
2018-09-19T01:13:43.289Z,35.16
2018-09-19T01:14:43.299Z,34.97
2018-09-19T01:15:43.303Z,35.16
2018-09-19T01:16:43.308Z,35.25
2018-09-19T01:17:43.315Z,35.16
2018-09-19T01:18:43.335Z,35.16
2018-09-19T01:19:43.330Z,35.25
2018-09-19T01:20:43.335Z,35.25
2018-09-19T01:21:43.343Z,35.25
2018-09-19T01:22:43.353Z,35.25
2018-09-19T01:23:43.355Z,35.16
2018-09-19T01:24:43.361Z,35.35
2018-09-19T01:25:43.367Z,35.45
2018-09-19T01:26:43.376Z,35.35
2018-09-19T01:27:43.382Z,35.16
2018-09-19T01:28:43.396Z,35.35
2018-09-19T01:29:43.393Z,34.97
2018-09-19T01:30:43.399Z,34.97
2018-09-19T01:31:43.406Z,35.55
2018-09-19T01:32:43.414Z,35.55
2018-09-19T01:33:43.422Z,35.25
2018-09-19T01:34:43.425Z,35.55
2018-09-19T01:35:43.433Z,35.35
2018-09-19T01:36:43.439Z,35.45
2018-09-19T01:37:43.445Z,35.16
2018-09-19T01:38:43.451Z,35.55
2018-09-19T01:39:43.459Z,35.06
2018-09-19T01:40:43.464Z,35.55
2018-09-19T01:41:43.478Z,35.06
2018-09-19T01:42:43.477Z,35.74
2018-09-19T01:43:43.485Z,35.35
2018-09-19T01:44:43.491Z,35.43
2018-09-19T01:45:43.498Z,35.35
2018-09-19T01:46:43.503Z,35.64
2018-09-19T01:47:43.509Z,35.64
2018-09-19T01:48:43.521Z,35.35
2018-09-19T01:49:43.522Z,35.55
2018-09-19T01:50:43.528Z,35.55
2018-09-19T01:51:43.536Z,35.45
2018-09-19T01:52:43.556Z,35.53
2018-09-19T01:53:43.547Z,35.25
2018-09-19T01:54:43.565Z,35.55
2018-09-19T01:55:43.561Z,35.64
2018-09-19T01:56:43.589Z,35.16
2018-09-19T01:57:43.575Z,35.74
2018-09-19T01:58:43.580Z,35.35
2018-09-19T01:59:43.588Z,35.55
2018-09-19T02:00:43.594Z,35.74
2018-09-19T02:01:43.599Z,35.45
2018-09-19T02:02:43.606Z,35.64
2018-09-19T02:03:43.612Z,35.55
2018-09-19T02:04:43.624Z,35.16
2018-09-19T02:05:43.625Z,35.82
2018-09-19T02:06:43.632Z,35.55
2018-09-19T02:07:43.638Z,35.25
2018-09-19T02:08:43.648Z,35.45
2018-09-19T02:09:43.652Z,35.55
2018-09-19T02:10:43.659Z,35.45
2018-09-19T02:11:43.664Z,35.64
2018-09-19T02:12:43.672Z,35.84
2018-09-19T02:13:43.676Z,35.94
2018-09-19T02:14:43.682Z,35.74
2018-09-19T02:15:43.690Z,35.84
2018-09-19T02:16:43.696Z,35.92
2018-09-19T02:17:43.704Z,35.55
2018-09-19T02:18:43.719Z,35.63
2018-09-19T02:19:43.716Z,35.94
2018-09-19T02:20:43.724Z,35.72
2018-09-19T02:21:43.740Z,35.92
2018-09-19T02:22:43.744Z,36.02
2018-09-19T02:23:43.745Z,35.82
2018-09-19T02:24:43.753Z,35.92
2018-09-19T02:25:43.756Z,35.94
2018-09-19T02:26:43.759Z,35.53
2018-09-19T02:27:43.767Z,35.92
2018-09-19T02:28:44.003Z,35.92
2018-09-19T02:29:43.778Z,35.72
2018-09-19T02:30:43.787Z,35.92
2018-09-19T02:31:43.794Z,36.02
2018-09-19T02:32:43.804Z,36.11
2018-09-19T02:33:43.805Z,36.02
2018-09-19T02:34:43.811Z,36.11
2018-09-19T02:35:43.819Z,36.11
2018-09-19T02:36:43.823Z,36.11
2018-09-19T02:37:43.831Z,36.11
2018-09-19T02:38:43.836Z,36.21
2018-09-19T02:39:43.876Z,36.69
2018-09-19T02:40:43.850Z,36.69
2018-09-19T02:41:43.866Z,36.69
2018-09-19T02:42:43.875Z,36.79
2018-09-19T02:43:43.871Z,36.60
2018-09-19T02:44:43.943Z,36.40
2018-09-19T02:45:43.885Z,36.50
2018-09-19T02:46:43.892Z,35.92
2018-09-19T02:47:43.896Z,36.30
2018-09-19T02:48:43.899Z,36.21
2018-09-19T02:49:43.917Z,36.02
2018-09-19T02:50:43.912Z,36.11
2018-09-19T02:51:43.920Z,36.50
2018-09-19T02:52:43.928Z,36.40
2018-09-19T02:53:43.931Z,36.69
2018-09-19T02:54:43.938Z,36.69
2018-09-19T02:55:43.945Z,36.79
2018-09-19T02:56:43.952Z,36.79
2018-09-19T02:57:43.959Z,36.89
2018-09-19T02:58:43.969Z,36.21
2018-09-19T02:59:43.972Z,36.21
2018-09-19T03:00:43.978Z,36.40
2018-09-19T03:01:43.983Z,36.50
2018-09-19T03:02:43.989Z,36.69
2018-09-19T03:03:43.995Z,36.60
2018-09-19T03:05:44.008Z,36.79
2018-09-19T03:06:44.014Z,36.79
2018-09-19T03:07:44.032Z,36.79
2018-09-19T03:08:44.027Z,36.79
2018-09-19T03:09:44.033Z,36.60
2018-09-19T03:10:44.041Z,36.79
2018-09-19T03:11:44.046Z,36.89
2018-09-19T03:12:44.055Z,36.69
2018-09-19T03:13:44.059Z,36.69
2018-09-19T03:14:44.065Z,36.60
2018-09-19T03:15:44.081Z,36.99
2018-09-19T03:16:44.082Z,36.79
2018-09-19T03:17:44.328Z,36.79
2018-09-19T03:18:44.099Z,36.89
2018-09-19T03:19:44.098Z,36.89
2018-09-19T03:20:44.103Z,36.89
2018-09-19T03:21:44.108Z,36.89
2018-09-19T03:22:44.116Z,36.69
2018-09-19T03:23:44.124Z,37.08
2018-09-19T03:24:44.127Z,36.69
2018-09-19T03:25:44.134Z,36.89
2018-09-19T03:26:44.145Z,37.08
2018-09-19T03:27:44.146Z,37.08
2018-09-19T03:28:44.151Z,37.08
2018-09-19T03:29:44.161Z,37.37
2018-09-19T03:30:44.166Z,37.28
2018-09-19T03:31:44.180Z,37.18
2018-09-19T03:32:44.177Z,37.28
2018-09-19T03:33:44.183Z,37.18
2018-09-19T03:34:44.205Z,37.28
2018-09-19T03:35:44.196Z,37.08
2018-09-19T03:36:44.209Z,37.08
2018-09-19T03:37:44.210Z,36.99
2018-09-19T03:38:44.220Z,37.08
2018-09-19T03:39:44.222Z,36.89
2018-09-19T03:40:44.231Z,36.99
2018-09-19T03:41:44.232Z,36.89
2018-09-19T03:42:44.241Z,37.28
2018-09-19T03:43:44.247Z,36.99
2018-09-19T03:44:44.251Z,37.08
2018-09-19T03:45:44.284Z,37.08
2018-09-19T03:46:44.266Z,36.89
2018-09-19T03:47:44.280Z,37.47
2018-09-19T03:48:44.282Z,37.28
2018-09-19T03:49:44.285Z,37.08
2018-09-19T03:50:44.292Z,37.47
2018-09-19T03:51:44.296Z,37.57
2018-09-19T03:52:44.302Z,37.57
2018-09-19T03:53:44.308Z,37.55
2018-09-19T03:54:44.319Z,37.35
2018-09-19T03:55:44.326Z,37.28
2018-09-19T03:56:44.328Z,37.66
2018-09-19T03:57:44.333Z,37.65
2018-09-19T03:58:44.339Z,37.35
2018-09-19T03:59:44.352Z,37.45
2018-09-19T04:00:44.358Z,37.16
2018-09-19T04:01:44.369Z,37.45
2018-09-19T04:02:44.368Z,37.37
2018-09-19T04:03:44.375Z,37.45
2018-09-19T04:04:44.376Z,37.26
2018-09-19T04:05:44.381Z,37.55
2018-09-19T04:06:44.392Z,37.65
2018-09-19T04:07:44.394Z,37.65
2018-09-19T04:08:44.403Z,37.65
2018-09-19T04:09:44.409Z,37.65
2018-09-19T04:10:44.456Z,37.65
2018-09-19T04:11:44.425Z,37.57
2018-09-19T04:12:44.429Z,37.45
2018-09-19T04:13:44.436Z,37.65
2018-09-19T04:14:44.438Z,37.47
2018-09-19T04:15:44.446Z,37.65
2018-09-19T04:16:44.449Z,37.55
2018-09-19T04:17:44.521Z,37.66
2018-09-19T04:18:44.464Z,37.55
2018-09-19T04:19:44.469Z,37.45
2018-09-19T04:20:44.477Z,37.26
2018-09-19T04:21:44.481Z,37.45
2018-09-19T04:22:44.492Z,37.35
2018-09-19T04:23:44.494Z,37.55
2018-09-19T04:24:44.500Z,37.45
2018-09-19T04:25:44.512Z,37.65
2018-09-19T04:26:44.512Z,38.13
2018-09-19T04:27:44.523Z,37.74
2018-09-19T04:28:44.529Z,37.74
2018-09-19T04:29:44.531Z,37.84
2018-09-19T04:30:44.539Z,37.84
2018-09-19T04:31:44.543Z,37.55
2018-09-19T04:32:44.549Z,37.65
2018-09-19T04:33:44.555Z,37.55
2018-09-19T04:34:44.566Z,37.84
2018-09-19T04:35:44.578Z,38.04
2018-09-19T04:36:44.574Z,38.32
2018-09-19T04:37:44.579Z,37.74
2018-09-19T04:38:44.589Z,37.94
2018-09-19T04:39:44.597Z,37.84
2018-09-19T04:40:44.601Z,37.94
2018-09-19T04:41:44.604Z,37.74
2018-09-19T04:42:44.611Z,38.13
2018-09-19T04:43:44.621Z,38.13
2018-09-19T04:44:44.622Z,37.94
2018-09-19T04:45:44.630Z,38.13
2018-09-19T04:46:44.635Z,38.04
2018-09-19T04:47:44.642Z,38.04
2018-09-19T04:48:44.652Z,38.23
2018-09-19T04:49:44.656Z,38.23
2018-09-19T04:50:44.674Z,38.04
2018-09-19T04:51:44.671Z,38.13
2018-09-19T04:52:44.673Z,38.42
2018-09-19T04:53:44.677Z,38.42
2018-09-19T04:54:44.686Z,38.13
2018-09-19T04:55:44.692Z,38.13
2018-09-19T04:56:44.696Z,38.23
2018-09-19T04:57:44.703Z,38.23
2018-09-19T04:58:44.709Z,38.23
2018-09-19T04:59:44.716Z,38.13
2018-09-19T05:00:44.723Z,38.13
2018-09-19T05:01:44.728Z,38.04
2018-09-19T05:02:44.733Z,38.52
2018-09-19T05:03:44.740Z,38.32
2018-09-19T05:04:44.747Z,38.40
2018-09-19T05:05:44.812Z,38.52
2018-09-19T05:06:44.765Z,38.42
2018-09-19T05:07:44.768Z,38.52
2018-09-19T05:08:44.770Z,38.32
2018-09-19T05:09:44.778Z,38.12
2018-09-19T05:10:44.783Z,38.23
2018-09-19T05:11:44.798Z,38.32
2018-09-19T05:12:44.798Z,38.23
2018-09-19T05:13:44.800Z,38.42
2018-09-19T05:14:44.807Z,38.62
2018-09-19T05:15:44.814Z,38.91
2018-09-19T05:16:44.819Z,38.79
2018-09-19T05:17:44.825Z,38.70
2018-09-19T05:18:44.835Z,38.42
2018-09-19T05:19:44.837Z,38.70
2018-09-19T05:20:44.847Z,38.71
2018-09-19T05:21:44.856Z,38.70
2018-09-19T05:22:44.856Z,38.62
2018-09-19T05:23:44.862Z,38.79
2018-09-19T05:24:44.868Z,38.70
2018-09-19T05:25:44.875Z,38.71
2018-09-19T05:26:44.879Z,38.62
2018-09-19T05:27:44.889Z,38.52
2018-09-19T05:28:44.890Z,38.52
2018-09-19T05:29:44.900Z,38.62
2018-09-19T05:30:44.904Z,38.62
2018-09-19T05:31:45.053Z,38.52
2018-09-19T05:32:44.916Z,38.50
2018-09-19T05:33:44.925Z,38.60
2018-09-19T05:34:44.931Z,38.71
2018-09-19T05:35:44.935Z,38.62
2018-09-19T05:36:44.936Z,38.71
2018-09-19T05:37:44.949Z,38.60
2018-09-19T05:38:44.954Z,38.50
2018-09-19T05:39:44.963Z,38.52
2018-09-19T05:40:44.973Z,38.60
2018-09-19T05:41:44.971Z,38.62
2018-09-19T05:42:44.984Z,38.52
2018-09-19T05:43:44.987Z,38.70
2018-09-19T05:44:44.990Z,38.62
2018-09-19T05:45:44.995Z,38.71
2018-09-19T05:46:45.002Z,38.52
2018-09-19T05:47:45.009Z,38.71
2018-09-19T05:48:45.014Z,38.32
2018-09-19T05:49:45.019Z,38.99
2018-09-19T05:50:45.028Z,38.62
2018-09-19T05:51:45.033Z,38.50
2018-09-19T05:52:45.038Z,38.70
2018-09-19T05:53:45.045Z,38.62
2018-09-19T05:54:45.057Z,38.70
2018-09-19T05:55:45.057Z,38.99
2018-09-19T05:56:45.091Z,38.79
2018-09-19T05:57:45.068Z,38.70
2018-09-19T05:58:45.076Z,38.79
2018-09-19T05:59:45.083Z,38.79
2018-09-19T06:00:45.086Z,38.70
2018-09-19T06:01:45.093Z,38.70
2018-09-19T06:02:45.107Z,39.08
2018-09-19T06:03:45.105Z,39.20
2018-09-19T06:04:45.113Z,39.08
2018-09-19T06:05:45.117Z,38.79
2018-09-19T06:06:45.127Z,38.70
2018-09-19T06:07:45.131Z,38.81
2018-09-19T06:08:45.136Z,39.08
2018-09-19T06:09:45.143Z,38.89
2018-09-19T06:10:45.155Z,38.60
2018-09-19T06:11:45.152Z,38.60
2018-09-19T06:12:45.244Z,38.79
2018-09-19T06:13:45.167Z,38.81
2018-09-19T06:14:45.174Z,39.11
2018-09-19T06:15:45.180Z,39.08
2018-09-19T06:16:45.190Z,38.99
2018-09-19T06:17:45.191Z,39.08
2018-09-19T06:18:45.195Z,39.28
2018-09-19T06:19:45.202Z,39.01
2018-09-19T06:20:45.205Z,39.18
2018-09-19T06:21:45.228Z,39.08
2018-09-19T06:22:45.220Z,39.11
2018-09-19T06:23:45.228Z,39.18
2018-09-19T06:24:45.232Z,39.11
2018-09-19T06:25:45.240Z,39.01
2018-09-19T06:26:45.244Z,38.91
2018-09-19T06:27:45.254Z,39.11
2018-09-19T06:28:45.259Z,39.11
2018-09-19T06:29:45.262Z,39.11
2018-09-19T06:30:45.271Z,39.01
2018-09-19T06:31:45.279Z,39.49
2018-09-19T06:32:45.367Z,39.39
2018-09-19T06:33:45.289Z,39.29
2018-09-19T06:34:45.293Z,39.11
2018-09-19T06:35:45.300Z,39.01
2018-09-19T06:36:45.470Z,39.20
2018-09-19T06:37:45.311Z,39.39
2018-09-19T06:38:45.319Z,39.11
2018-09-19T06:39:45.324Z,39.20
2018-09-19T06:40:45.467Z,39.01
2018-09-19T06:41:45.336Z,38.91
2018-09-19T06:42:45.376Z,39.01
2018-09-19T06:43:45.349Z,39.01
2018-09-19T06:44:45.359Z,39.01
2018-09-19T06:45:45.388Z,39.20
2018-09-19T06:46:45.384Z,39.11
2018-09-19T06:47:45.376Z,39.11
2018-09-19T06:48:45.380Z,39.01
2018-09-19T06:49:45.387Z,38.83
2018-09-19T06:50:45.392Z,39.11
2018-09-19T06:51:45.410Z,39.22
2018-09-19T06:52:45.409Z,38.83
2018-09-19T06:53:45.418Z,38.83
2018-09-19T06:54:45.419Z,39.03
2018-09-19T06:55:45.423Z,38.93
2018-09-19T06:56:45.428Z,38.93
2018-09-19T06:57:45.434Z,39.03
2018-09-19T06:58:45.441Z,39.12
2018-09-19T06:59:45.472Z,39.12
2018-09-19T07:00:45.454Z,39.12
2018-09-19T07:01:45.455Z,39.41
2018-09-19T07:02:45.466Z,39.32
2018-09-19T07:03:45.475Z,39.32
2018-09-19T07:04:45.477Z,39.51
2018-09-19T07:05:45.524Z,39.70
2018-09-19T07:06:45.490Z,39.51
2018-09-19T07:07:45.498Z,40.00
2018-09-19T07:08:45.503Z,40.09
2018-09-19T07:09:45.519Z,39.70
2018-09-19T07:10:45.531Z,39.61
2018-09-19T07:11:45.536Z,40.67
2018-09-19T07:12:45.529Z,40.19
2018-09-19T07:13:45.537Z,40.48
2018-09-19T07:14:45.543Z,40.67
2018-09-19T07:15:45.549Z,40.97
2018-09-19T07:16:45.553Z,41.06
2018-09-19T07:17:45.560Z,40.48
2018-09-19T07:18:45.604Z,40.77
2018-09-19T07:19:45.574Z,40.58
2018-09-19T07:20:45.578Z,40.77
2018-09-19T07:21:45.586Z,40.11
2018-09-19T07:22:45.605Z,40.31
2018-09-19T07:23:45.644Z,40.31
2018-09-19T07:24:45.604Z,40.31
2018-09-19T07:25:45.614Z,40.50
2018-09-19T07:26:45.617Z,40.11
2018-09-19T07:27:45.632Z,40.11
2018-09-19T07:28:45.648Z,40.89
2018-09-19T07:29:45.636Z,40.79
2018-09-19T07:30:45.641Z,40.60
2018-09-19T07:31:45.650Z,40.41
2018-09-19T07:32:45.655Z,40.50
2018-09-19T07:33:45.665Z,41.08
2018-09-19T07:34:45.668Z,41.28
2018-09-19T07:35:45.676Z,41.08
2018-09-19T07:36:45.683Z,41.08
2018-09-19T07:37:45.687Z,41.08
2018-09-19T07:38:45.695Z,41.08
2018-09-19T07:39:45.706Z,40.99
2018-09-19T07:40:45.706Z,40.99
2018-09-19T07:41:45.714Z,40.72
2018-09-19T07:42:45.720Z,40.79
2018-09-19T07:43:45.727Z,40.79
2018-09-19T07:44:45.733Z,40.52
2018-09-19T07:45:45.751Z,40.81
2018-09-19T07:46:45.814Z,41.01
2018-09-19T07:47:45.756Z,40.91
2018-09-19T07:48:45.760Z,40.62
2018-09-19T07:49:45.772Z,40.52
2018-09-19T07:50:45.772Z,40.72
2018-09-19T07:51:45.780Z,40.91
2018-09-19T07:52:45.784Z,41.10
2018-09-19T07:53:45.797Z,40.91
2018-09-19T07:54:45.919Z,41.01
2018-09-19T07:55:45.808Z,40.81
2018-09-19T07:56:45.827Z,40.72
2018-09-19T07:57:45.818Z,41.01
2018-09-19T07:58:45.824Z,41.01
2018-09-19T07:59:45.831Z,41.10
2018-09-19T08:00:45.984Z,40.91
2018-09-19T08:01:45.847Z,41.10
2018-09-19T08:02:45.851Z,40.91
2018-09-19T08:03:45.859Z,40.91
2018-09-19T08:04:45.887Z,40.52
2018-09-19T08:05:45.870Z,40.52
2018-09-19T08:06:45.878Z,40.34
2018-09-19T08:07:45.886Z,40.64
2018-09-19T08:08:45.891Z,40.54
2018-09-19T08:09:45.897Z,40.52
2018-09-19T08:10:45.905Z,40.91
2018-09-19T08:11:45.914Z,40.62
2018-09-19T08:12:45.918Z,40.62
2018-09-19T08:13:45.935Z,40.73
2018-09-19T08:14:45.934Z,40.72
2018-09-19T08:15:45.941Z,40.72
2018-09-19T08:16:45.950Z,40.73
2018-09-19T08:17:45.954Z,40.73
2018-09-19T08:18:45.960Z,40.52
2018-09-19T08:19:45.966Z,40.54
2018-09-19T08:20:45.974Z,40.25
2018-09-19T08:21:45.983Z,40.54
2018-09-19T08:22:46.033Z,40.34
2018-09-19T08:23:45.995Z,40.34
2018-09-19T08:24:46.002Z,40.25
2018-09-19T08:25:46.006Z,40.34
2018-09-19T08:26:46.014Z,40.34
2018-09-19T08:27:46.022Z,40.44
2018-09-19T08:28:46.028Z,40.34
2018-09-19T08:29:46.037Z,40.25
2018-09-19T08:30:46.054Z,40.25
2018-09-19T08:31:46.056Z,40.25
2018-09-19T08:32:46.057Z,40.34
2018-09-19T08:33:46.061Z,40.34
2018-09-19T08:34:46.073Z,40.15
2018-09-19T08:35:46.077Z,40.64
2018-09-19T08:36:46.085Z,40.34
2018-09-19T08:37:46.123Z,40.44
2018-09-19T08:38:46.103Z,40.47
2018-09-19T08:39:46.122Z,40.44
2018-09-19T08:40:46.111Z,40.44
2018-09-19T08:41:46.115Z,40.37
2018-09-19T08:42:46.130Z,40.56
2018-09-19T08:43:46.133Z,40.54
2018-09-19T08:44:46.145Z,40.54
2018-09-19T08:45:46.151Z,40.37
2018-09-19T08:46:46.154Z,40.37
2018-09-19T08:47:46.160Z,40.44
2018-09-19T08:48:46.171Z,40.37
2018-09-19T08:49:46.175Z,40.47
2018-09-19T08:50:46.427Z,40.27
2018-09-19T08:51:46.191Z,40.85
2018-09-19T08:52:46.194Z,40.47
2018-09-19T08:53:46.211Z,40.66
2018-09-19T08:54:46.211Z,40.37
2018-09-19T08:55:46.219Z,40.47
2018-09-19T08:56:46.252Z,40.47
2018-09-19T08:57:46.240Z,40.56
2018-09-19T08:58:46.236Z,40.37
2018-09-19T08:59:46.245Z,40.47
2018-09-19T09:00:46.250Z,40.56
2018-09-19T09:01:46.271Z,40.37
2018-09-19T09:02:46.269Z,40.47
2018-09-19T09:03:46.276Z,40.56
2018-09-19T09:04:46.278Z,40.56
2018-09-19T09:05:46.287Z,41.05
2018-09-19T09:06:46.298Z,41.16
2018-09-19T09:07:46.301Z,40.85
2018-09-19T09:08:46.316Z,41.05
2018-09-19T09:09:46.324Z,40.78
2018-09-19T09:10:46.323Z,40.68
2018-09-19T09:11:46.332Z,40.58
2018-09-19T09:12:46.445Z,40.56
2018-09-19T09:13:46.352Z,40.58
2018-09-19T09:14:46.351Z,40.39
2018-09-19T09:15:46.359Z,40.48
2018-09-19T09:16:46.366Z,40.48
2018-09-19T09:17:46.374Z,40.39
2018-09-19T09:18:46.383Z,40.39
2018-09-19T09:19:46.396Z,40.48
2018-09-19T09:20:46.395Z,40.48
2018-09-19T09:21:46.402Z,40.58
2018-09-19T09:22:46.411Z,40.29
2018-09-19T09:23:46.416Z,40.48
2018-09-19T09:24:46.424Z,40.08
2018-09-19T09:25:46.430Z,40.27
2018-09-19T09:26:46.443Z,39.90
2018-09-19T09:27:46.448Z,40.19
2018-09-19T09:28:46.452Z,40.09
2018-09-19T09:29:46.462Z,40.19
2018-09-19T09:30:46.466Z,40.19
2018-09-19T09:31:46.472Z,40.00
2018-09-19T09:32:46.484Z,40.09
2018-09-19T09:33:46.488Z,40.09
2018-09-19T09:34:46.499Z,40.19
2018-09-19T09:35:46.504Z,40.00
2018-09-19T09:36:46.574Z,39.69
2018-09-19T09:37:46.518Z,39.51
2018-09-19T09:38:46.526Z,40.09
2018-09-19T09:39:46.544Z,39.61
2018-09-19T09:40:46.540Z,39.61
2018-09-19T09:41:46.548Z,39.80
2018-09-19T09:42:46.554Z,39.70
2018-09-19T09:43:46.563Z,39.69
2018-09-19T09:44:46.588Z,39.80
2018-09-19T09:45:46.591Z,39.80
2018-09-19T09:46:46.584Z,39.70
2018-09-19T09:47:46.592Z,39.41
2018-09-19T09:48:46.599Z,39.51
2018-09-19T09:49:46.605Z,39.41
2018-09-19T09:50:46.616Z,39.31
2018-09-19T09:51:46.623Z,39.31
2018-09-19T09:52:46.627Z,39.51
2018-09-19T09:53:46.636Z,39.31
2018-09-19T09:54:46.644Z,39.22
2018-09-19T09:55:46.651Z,39.31
2018-09-19T09:56:46.659Z,39.22
2018-09-19T09:57:46.666Z,39.51
2018-09-19T09:58:46.672Z,39.31
2018-09-19T09:59:46.681Z,39.31
2018-09-19T10:00:46.687Z,39.31
2018-09-19T10:01:46.695Z,39.12
2018-09-19T10:02:46.705Z,39.31
2018-09-19T10:03:46.709Z,39.22
2018-09-19T10:04:46.717Z,39.29
2018-09-19T10:05:46.724Z,39.51
2018-09-19T10:06:46.734Z,39.51
2018-09-19T10:07:46.739Z,39.51
2018-09-19T10:08:46.747Z,39.51
2018-09-19T10:09:46.752Z,40.00
2018-09-19T10:10:46.761Z,40.00
2018-09-19T10:11:46.767Z,39.70
2018-09-19T10:12:46.774Z,39.80
2018-09-19T10:13:46.854Z,39.80
2018-09-19T10:14:46.794Z,39.61
2018-09-19T10:15:46.799Z,39.80
2018-09-19T10:16:46.804Z,40.19
2018-09-19T10:17:46.813Z,40.00
2018-09-19T10:18:46.817Z,40.08
2018-09-19T10:19:46.826Z,39.90
2018-09-19T10:20:46.835Z,40.09
2018-09-19T10:21:46.839Z,40.09
2018-09-19T10:22:46.849Z,40.19
2018-09-19T10:23:46.855Z,40.09
2018-09-19T10:24:46.862Z,40.09
2018-09-19T10:25:46.870Z,40.19
2018-09-19T10:26:46.877Z,39.80
2018-09-19T10:27:46.888Z,39.90
2018-09-19T10:28:46.892Z,40.29
2018-09-19T10:29:46.902Z,40.78
2018-09-19T10:30:46.907Z,40.47
2018-09-19T10:31:46.914Z,40.37
2018-09-19T10:32:46.922Z,40.37
2018-09-19T10:33:46.974Z,40.56
2018-09-19T10:34:46.944Z,40.47
2018-09-19T10:35:46.946Z,40.29
2018-09-19T10:36:46.953Z,40.37
2018-09-19T10:37:46.958Z,40.58
2018-09-19T10:38:46.965Z,40.39
2018-09-19T10:39:46.977Z,40.29
2018-09-19T10:40:46.979Z,40.29
2018-09-19T10:41:46.997Z,40.48
2018-09-19T10:42:46.997Z,40.29
2018-09-19T10:43:47.069Z,40.29
2018-09-19T10:44:47.009Z,40.48
2018-09-19T10:45:47.017Z,40.48
2018-09-19T10:46:47.028Z,40.48
2018-09-19T10:47:47.032Z,40.48
2018-09-19T10:48:47.038Z,40.39
2018-09-19T10:49:47.045Z,40.48
2018-09-19T10:50:47.051Z,40.58
2018-09-19T10:51:47.060Z,40.39
2018-09-19T10:52:47.067Z,40.58
2018-09-19T10:53:47.074Z,40.39
2018-09-19T10:54:47.118Z,40.48
2018-09-19T10:55:47.089Z,40.68
2018-09-19T10:56:47.136Z,40.19
2018-09-19T10:57:47.104Z,40.29
2018-09-19T10:58:47.111Z,40.39
2018-09-19T10:59:47.117Z,40.29
2018-09-19T11:00:47.124Z,40.48
2018-09-19T11:01:47.160Z,40.39
2018-09-19T11:02:47.139Z,40.78
2018-09-19T11:03:47.150Z,40.88
2018-09-19T11:04:47.157Z,40.39
2018-09-19T11:05:47.158Z,40.48
2018-09-19T11:06:47.171Z,40.66
2018-09-19T11:07:47.176Z,40.58
2018-09-19T11:08:47.182Z,40.78
2018-09-19T11:09:47.189Z,40.58
2018-09-19T11:10:47.195Z,40.58
2018-09-19T11:11:47.202Z,40.78
2018-09-19T11:12:47.208Z,40.56
2018-09-19T11:13:47.220Z,40.75
2018-09-19T11:14:47.228Z,40.47
2018-09-19T11:15:47.233Z,40.56
2018-09-19T11:16:47.240Z,40.48
2018-09-19T11:17:47.247Z,40.88
2018-09-19T11:18:47.252Z,40.56
2018-09-19T11:19:47.269Z,40.37
2018-09-19T11:20:47.270Z,40.56
2018-09-19T11:21:47.276Z,40.78
2018-09-19T11:22:47.296Z,40.78
2018-09-19T11:23:47.292Z,40.39
2018-09-19T11:24:47.301Z,40.39
2018-09-19T11:25:47.304Z,40.56
2018-09-19T11:26:47.312Z,40.39
2018-09-19T11:27:47.320Z,40.68
2018-09-19T11:28:47.329Z,40.56
2018-09-19T11:29:47.332Z,40.58
2018-09-19T11:30:47.341Z,40.58
2018-09-19T11:31:47.349Z,40.66
2018-09-19T11:32:47.355Z,40.68
2018-09-19T11:33:47.364Z,40.56
2018-09-19T11:34:47.370Z,40.78
2018-09-19T11:35:47.379Z,40.56
2018-09-19T11:36:47.384Z,40.68
2018-09-19T11:37:47.392Z,40.56
2018-09-19T11:38:47.405Z,40.17
2018-09-19T11:39:47.406Z,40.47
2018-09-19T11:40:47.415Z,40.66
2018-09-19T11:41:47.441Z,40.37
2018-09-19T11:42:47.431Z,40.48
2018-09-19T11:43:47.441Z,40.29
2018-09-19T11:44:47.444Z,40.58
2018-09-19T11:45:47.461Z,40.39
2018-09-19T11:46:47.459Z,40.48
2018-09-19T11:47:47.467Z,40.39
2018-09-19T11:48:47.496Z,40.19
2018-09-19T11:49:47.487Z,40.19
2018-09-19T11:50:47.488Z,40.19
2018-09-19T11:51:47.494Z,40.00
2018-09-19T11:52:47.501Z,40.00
2018-09-19T11:53:47.513Z,39.80
2018-09-19T11:54:47.516Z,40.00
2018-09-19T11:55:47.527Z,39.90
2018-09-19T11:56:47.530Z,40.00
2018-09-19T11:57:47.537Z,39.90
2018-09-19T11:58:47.545Z,39.90
2018-09-19T11:59:47.553Z,40.09
2018-09-19T12:00:47.561Z,40.09
2018-09-19T12:01:47.576Z,40.19
2018-09-19T12:02:47.574Z,40.00
2018-09-19T12:03:47.585Z,40.09
2018-09-19T12:04:47.589Z,40.19
2018-09-19T12:05:47.596Z,39.90
2018-09-19T12:06:47.618Z,40.00
2018-09-19T12:07:47.613Z,40.09
2018-09-19T12:08:47.617Z,40.09
2018-09-19T12:09:47.625Z,39.80
2018-09-19T12:10:47.633Z,39.51
2018-09-19T12:11:47.639Z,39.61
2018-09-19T12:12:47.648Z,39.80
2018-09-19T12:13:47.656Z,39.80
2018-09-19T12:14:47.660Z,40.00
2018-09-19T12:15:47.672Z,39.70
2018-09-19T12:16:47.674Z,39.51
2018-09-19T12:17:47.684Z,39.41
2018-09-19T12:18:47.688Z,39.41
2018-09-19T12:19:47.699Z,39.31
2018-09-19T12:20:47.704Z,39.41
2018-09-19T12:21:47.711Z,39.22
2018-09-19T12:22:47.721Z,39.41
2018-09-19T12:23:47.728Z,39.31
2018-09-19T12:24:47.733Z,39.12
2018-09-19T12:25:47.741Z,39.31
2018-09-19T12:26:47.746Z,39.12
2018-09-19T12:27:47.757Z,39.03
2018-09-19T12:28:47.762Z,38.93
2018-09-19T12:29:47.769Z,38.93
2018-09-19T12:30:47.777Z,39.31
2018-09-19T12:31:47.784Z,39.22
2018-09-19T12:32:47.792Z,39.12
2018-09-19T12:33:47.799Z,39.22
2018-09-19T12:34:47.806Z,38.93
2018-09-19T12:35:47.817Z,39.12
2018-09-19T12:36:47.821Z,39.12
2018-09-19T12:37:47.833Z,39.22
2018-09-19T12:38:47.835Z,39.12
2018-09-19T12:39:47.841Z,39.12
2018-09-19T12:40:47.853Z,39.22
2018-09-19T12:41:47.857Z,39.12
2018-09-19T12:42:47.872Z,39.41
2018-09-19T12:43:47.872Z,39.31
2018-09-19T12:44:47.877Z,39.22
2018-09-19T12:45:47.886Z,38.93
2018-09-19T12:46:47.896Z,38.83
2018-09-19T12:47:47.905Z,38.54
2018-09-19T12:48:47.908Z,38.85
2018-09-19T12:49:47.915Z,38.73
2018-09-19T12:50:47.926Z,38.83
2018-09-19T12:51:47.932Z,38.73
2018-09-19T12:52:47.937Z,38.73
2018-09-19T12:53:47.945Z,38.75